sensor_id;sensor_type;location;lat;lon;timestamp;P1;durP1;ratioP1;P2;durP2;ratioP2
50231;SDS011;36118;56.468;84.952;2024-03-23T00:56:52;11.57;;;6.50;;
50231;SDS011;36118;56.468;84.952;2024-03-23T01:01:55;10.32;;;5.55;;
50231;SDS011;36118;56.468;84.952;2024-03-23T01:06:56;15.20;;;7.25;;
50231;SDS011;36118;56.468;84.952;2024-03-23T01:11:59;12.75;;;6.28;;
50231;SDS011;36118;56.468;84.952;2024-03-23T01:17:01;10.05;;;6.20;;
50231;SDS011;36118;56.468;84.952;2024-03-23T01:22:03;11.70;;;6.50;;
50231;SDS011;36118;56.468;84.952;2024-03-23T01:27:06;12.68;;;5.68;;
50231;SDS011;36118;56.468;84.952;2024-03-23T01:32:09;14.38;;;7.35;;
50231;SDS011;36118;56.468;84.952;2024-03-23T01:37:11;15.60;;;8.27;;
50231;SDS011;36118;56.468;84.952;2024-03-23T01:42:14;15.85;;;8.55;;
50231;SDS011;36118;56.468;84.952;2024-03-23T01:47:17;18.55;;;9.88;;
50231;SDS011;36118;56.468;84.952;2024-03-23T01:52:19;20.15;;;8.27;;
50231;SDS011;36118;56.468;84.952;2024-03-23T01:57:22;17.65;;;8.88;;
50231;SDS011;36118;56.468;84.952;2024-03-23T02:02:24;14.40;;;7.82;;
50231;SDS011;36118;56.468;84.952;2024-03-23T02:07:27;18.65;;;9.00;;
50231;SDS011;36118;56.468;84.952;2024-03-23T02:12:29;19.67;;;8.50;;
50231;SDS011;36118;56.468;84.952;2024-03-23T02:17:33;18.55;;;9.07;;
50231;SDS011;36118;56.468;84.952;2024-03-23T02:22:39;17.20;;;8.50;;
50231;SDS011;36118;56.468;84.952;2024-03-23T02:27:42;19.25;;;9.27;;
50231;SDS011;36118;56.468;84.952;2024-03-23T02:32:46;17.80;;;8.83;;
50231;SDS011;36118;56.468;84.952;2024-03-23T02:37:48;16.88;;;8.13;;
50231;SDS011;36118;56.468;84.952;2024-03-23T02:42:50;19.05;;;8.52;;
50231;SDS011;36118;56.468;84.952;2024-03-23T02:47:52;17.67;;;8.77;;
50231;SDS011;36118;56.468;84.952;2024-03-23T02:52:55;19.27;;;8.82;;
50231;SDS011;36118;56.468;84.952;2024-03-23T02:57:58;17.40;;;8.73;;
50231;SDS011;36118;56.468;84.952;2024-03-23T03:03:03;13.75;;;6.85;;
50231;SDS011;36118;56.468;84.952;2024-03-23T03:08:06;15.05;;;7.30;;
50231;SDS011;36118;56.468;84.952;2024-03-23T03:13:09;15.80;;;6.35;;
50231;SDS011;36118;56.468;84.952;2024-03-23T03:18:11;12.35;;;6.18;;
50231;SDS011;36118;56.468;84.952;2024-03-23T03:23:13;13.50;;;6.18;;
50231;SDS011;36118;56.468;84.952;2024-03-23T03:28:16;12.68;;;6.60;;
50231;SDS011;36118;56.468;84.952;2024-03-23T03:33:18;14.57;;;5.07;;
50231;SDS011;36118;56.468;84.952;2024-03-23T03:38:20;9.65;;;4.45;;
50231;SDS011;36118;56.468;84.952;2024-03-23T03:43:22;12.00;;;5.50;;
50231;SDS011;36118;56.468;84.952;2024-03-23T03:48:25;20.85;;;5.40;;
50231;SDS011;36118;56.468;84.952;2024-03-23T03:53:27;12.55;;;5.30;;
50231;SDS011;36118;56.468;84.952;2024-03-23T03:58:30;13.75;;;4.72;;
50231;SDS011;36118;56.468;84.952;2024-03-23T04:03:32;14.68;;;5.22;;
50231;SDS011;36118;56.468;84.952;2024-03-23T04:08:34;13.40;;;4.78;;
50231;SDS011;36118;56.468;84.952;2024-03-23T04:13:35;14.73;;;5.13;;
50231;SDS011;36118;56.468;84.952;2024-03-23T04:18:38;10.85;;;3.72;;
50231;SDS011;36118;56.468;84.952;2024-03-23T04:23:40;9.65;;;4.10;;
50231;SDS011;36118;56.468;84.952;2024-03-23T04:28:42;10.35;;;3.63;;
50231;SDS011;36118;56.468;84.952;2024-03-23T04:33:46;10.35;;;3.75;;
50231;SDS011;36118;56.468;84.952;2024-03-23T04:44:11;14.70;;;3.92;;
50231;SDS011;36118;56.468;84.952;2024-03-23T04:49:13;11.27;;;4.45;;
50231;SDS011;36118;56.468;84.952;2024-03-23T04:54:16;11.30;;;4.10;;
50231;SDS011;36118;56.468;84.952;2024-03-23T04:59:18;8.77;;;3.78;;
50231;SDS011;36118;56.468;84.952;2024-03-23T05:04:21;10.75;;;3.95;;
50231;SDS011;36118;56.468;84.952;2024-03-23T05:09:24;9.25;;;3.60;;
50231;SDS011;36118;56.468;84.952;2024-03-23T05:14:31;11.20;;;4.43;;
50231;SDS011;36118;56.468;84.952;2024-03-23T05:19:33;10.43;;;3.45;;
50231;SDS011;36118;56.468;84.952;2024-03-23T05:24:36;8.88;;;3.55;;
50231;SDS011;36118;56.468;84.952;2024-03-23T05:29:38;8.35;;;3.55;;
50231;SDS011;36118;56.468;84.952;2024-03-23T05:34:40;11.05;;;3.45;;
50231;SDS011;36118;56.468;84.952;2024-03-23T05:39:42;10.57;;;3.50;;
50231;SDS011;36118;56.468;84.952;2024-03-23T05:44:45;10.05;;;4.07;;
50231;SDS011;36118;56.468;84.952;2024-03-23T05:49:48;8.90;;;3.30;;
50231;SDS011;36118;56.468;84.952;2024-03-23T05:54:50;5.60;;;3.22;;
50231;SDS011;36118;56.468;84.952;2024-03-23T05:59:54;8.03;;;3.60;;
50231;SDS011;36118;56.468;84.952;2024-03-23T06:04:56;13.80;;;3.80;;
50231;SDS011;36118;56.468;84.952;2024-03-23T06:09:59;7.65;;;4.63;;
50231;SDS011;36118;56.468;84.952;2024-03-23T06:15:01;5.93;;;3.20;;
50231;SDS011;36118;56.468;84.952;2024-03-23T06:20:05;8.02;;;3.40;;
50231;SDS011;36118;56.468;84.952;2024-03-23T06:25:10;6.30;;;3.20;;
50231;SDS011;36118;56.468;84.952;2024-03-23T06:30:14;7.90;;;3.28;;
50231;SDS011;36118;56.468;84.952;2024-03-23T06:35:17;6.10;;;3.05;;
50231;SDS011;36118;56.468;84.952;2024-03-23T06:40:19;9.23;;;2.95;;
50231;SDS011;36118;56.468;84.952;2024-03-23T06:45:22;6.13;;;2.53;;
50231;SDS011;36118;56.468;84.952;2024-03-23T06:50:24;7.57;;;2.97;;
50231;SDS011;36118;56.468;84.952;2024-03-23T06:55:28;5.50;;;2.90;;
50231;SDS011;36118;56.468;84.952;2024-03-23T07:00:31;6.18;;;2.95;;
50231;SDS011;36118;56.468;84.952;2024-03-23T07:05:36;7.40;;;2.50;;
50231;SDS011;36118;56.468;84.952;2024-03-23T07:10:41;6.07;;;2.50;;
50231;SDS011;36118;56.468;84.952;2024-03-23T07:15:43;5.65;;;2.58;;
50231;SDS011;36118;56.468;84.952;2024-03-23T07:20:53;5.20;;;2.60;;
50231;SDS011;36118;56.468;84.952;2024-03-23T07:26:02;5.35;;;2.70;;
50231;SDS011;36118;56.468;84.952;2024-03-23T07:31:10;6.85;;;2.33;;
50231;SDS011;36118;56.468;84.952;2024-03-23T07:36:13;5.22;;;2.30;;
50231;SDS011;36118;56.468;84.952;2024-03-23T07:41:15;7.25;;;2.80;;
50231;SDS011;36118;56.468;84.952;2024-03-23T07:46:22;7.18;;;2.85;;
50231;SDS011;36118;56.468;84.952;2024-03-23T07:51:24;9.85;;;2.85;;
50231;SDS011;36118;56.468;84.952;2024-03-23T07:56:26;4.65;;;2.22;;
50231;SDS011;36118;56.468;84.952;2024-03-23T08:01:28;6.47;;;2.63;;
50231;SDS011;36118;56.468;84.952;2024-03-23T08:06:30;7.22;;;3.10;;
50231;SDS011;36118;56.468;84.952;2024-03-23T08:11:32;8.10;;;2.40;;
50231;SDS011;36118;56.468;84.952;2024-03-23T08:16:36;4.88;;;2.28;;
50231;SDS011;36118;56.468;84.952;2024-03-23T08:21:38;6.38;;;2.30;;
50231;SDS011;36118;56.468;84.952;2024-03-23T08:26:40;5.82;;;2.35;;
50231;SDS011;36118;56.468;84.952;2024-03-23T08:31:44;6.22;;;2.80;;
50231;SDS011;36118;56.468;84.952;2024-03-23T08:36:46;6.65;;;2.70;;
50231;SDS011;36118;56.468;84.952;2024-03-23T08:41:48;5.97;;;2.10;;
50231;SDS011;36118;56.468;84.952;2024-03-23T08:46:55;5.70;;;2.75;;
50231;SDS011;36118;56.468;84.952;2024-03-23T08:51:57;5.50;;;2.90;;
50231;SDS011;36118;56.468;84.952;2024-03-23T08:57:01;5.68;;;2.35;;
50231;SDS011;36118;56.468;84.952;2024-03-23T09:02:04;7.97;;;2.90;;
50231;SDS011;36118;56.468;84.952;2024-03-23T09:07:06;8.30;;;3.00;;
50231;SDS011;36118;56.468;84.952;2024-03-23T09:12:09;4.90;;;2.28;;
50231;SDS011;36118;56.468;84.952;2024-03-23T09:17:12;6.22;;;2.88;;
50231;SDS011;36118;56.468;84.952;2024-03-23T09:22:14;7.80;;;3.00;;
50231;SDS011;36118;56.468;84.952;2024-03-23T09:27:16;9.32;;;3.28;;
50231;SDS011;36118;56.468;84.952;2024-03-23T09:32:19;7.43;;;2.45;;
50231;SDS011;36118;56.468;84.952;2024-03-23T09:37:21;7.70;;;2.90;;
50231;SDS011;36118;56.468;84.952;2024-03-23T09:42:23;7.00;;;3.15;;
50231;SDS011;36118;56.468;84.952;2024-03-23T09:47:26;8.73;;;3.50;;
50231;SDS011;36118;56.468;84.952;2024-03-23T09:52:31;5.65;;;2.67;;
50231;SDS011;36118;56.468;84.952;2024-03-23T09:57:35;6.45;;;2.92;;
50231;SDS011;36118;56.468;84.952;2024-03-23T10:02:38;6.68;;;3.20;;
50231;SDS011;36118;56.468;84.952;2024-03-23T10:07:41;10.60;;;5.53;;
50231;SDS011;36118;56.468;84.952;2024-03-23T10:12:47;10.60;;;4.35;;
50231;SDS011;36118;56.468;84.952;2024-03-23T10:17:53;10.13;;;3.80;;
50231;SDS011;36118;56.468;84.952;2024-03-23T10:22:56;6.30;;;2.85;;
50231;SDS011;36118;56.468;84.952;2024-03-23T10:27:59;5.32;;;2.95;;
50231;SDS011;36118;56.468;84.952;2024-03-23T10:33:09;8.65;;;3.10;;
50231;SDS011;36118;56.468;84.952;2024-03-23T10:38:12;7.32;;;3.00;;
50231;SDS011;36118;56.468;84.952;2024-03-23T10:43:16;8.77;;;3.78;;
50231;SDS011;36118;56.468;84.952;2024-03-23T10:48:18;7.40;;;3.60;;
50231;SDS011;36118;56.468;84.952;2024-03-23T10:53:25;7.60;;;3.85;;
50231;SDS011;36118;56.468;84.952;2024-03-23T10:58:30;6.10;;;3.42;;
50231;SDS011;36118;56.468;84.952;2024-03-23T11:03:33;7.70;;;4.90;;
50231;SDS011;36118;56.468;84.952;2024-03-23T11:08:40;6.25;;;3.78;;
50231;SDS011;36118;56.468;84.952;2024-03-23T11:13:50;6.13;;;3.22;;
50231;SDS011;36118;56.468;84.952;2024-03-23T11:18:53;6.22;;;3.50;;
50231;SDS011;36118;56.468;84.952;2024-03-23T11:24:12;6.57;;;3.00;;
50231;SDS011;36118;56.468;84.952;2024-03-23T11:29:17;8.45;;;2.90;;
50231;SDS011;36118;56.468;84.952;2024-03-23T11:34:23;6.72;;;3.22;;
50231;SDS011;36118;56.468;84.952;2024-03-23T11:39:24;6.45;;;3.20;;
50231;SDS011;36118;56.468;84.952;2024-03-23T11:44:26;5.97;;;3.70;;
50231;SDS011;36118;56.468;84.952;2024-03-23T11:49:29;8.30;;;3.70;;
50231;SDS011;36118;56.468;84.952;2024-03-23T11:54:31;8.13;;;3.78;;
50231;SDS011;36118;56.468;84.952;2024-03-23T11:59:39;7.13;;;2.95;;
50231;SDS011;36118;56.468;84.952;2024-03-23T12:04:42;6.97;;;2.97;;
50231;SDS011;36118;56.468;84.952;2024-03-23T12:10:06;8.95;;;3.58;;
50231;SDS011;36118;56.468;84.952;2024-03-23T12:15:08;4.33;;;2.20;;
50231;SDS011;36118;56.468;84.952;2024-03-23T12:20:11;6.35;;;3.05;;
50231;SDS011;36118;56.468;84.952;2024-03-23T12:25:13;10.05;;;3.63;;
50231;SDS011;36118;56.468;84.952;2024-03-23T12:30:15;6.13;;;3.20;;
50231;SDS011;36118;56.468;84.952;2024-03-23T12:35:17;5.57;;;3.00;;
50231;SDS011;36118;56.468;84.952;2024-03-23T12:40:21;8.65;;;4.13;;
50231;SDS011;36118;56.468;84.952;2024-03-23T12:45:24;8.53;;;3.90;;
50231;SDS011;36118;56.468;84.952;2024-03-23T12:50:26;8.77;;;4.30;;
50231;SDS011;36118;56.468;84.952;2024-03-23T12:55:29;9.10;;;4.47;;
50231;SDS011;36118;56.468;84.952;2024-03-23T13:00:32;7.53;;;3.88;;
50231;SDS011;36118;56.468;84.952;2024-03-23T13:05:34;9.30;;;4.72;;
50231;SDS011;36118;56.468;84.952;2024-03-23T13:10:37;7.85;;;3.60;;
50231;SDS011;36118;56.468;84.952;2024-03-23T13:15:40;9.57;;;3.70;;
50231;SDS011;36118;56.468;84.952;2024-03-23T13:20:44;7.82;;;3.63;;
50231;SDS011;36118;56.468;84.952;2024-03-23T13:25:50;7.15;;;3.72;;
50231;SDS011;36118;56.468;84.952;2024-03-23T13:30:56;9.40;;;3.33;;
50231;SDS011;36118;56.468;84.952;2024-03-23T13:36:05;6.43;;;3.15;;
50231;SDS011;36118;56.468;84.952;2024-03-23T13:41:08;6.63;;;3.63;;
50231;SDS011;36118;56.468;84.952;2024-03-23T13:46:14;8.88;;;3.85;;
50231;SDS011;36118;56.468;84.952;2024-03-23T13:51:16;5.95;;;3.28;;
50231;SDS011;36118;56.468;84.952;2024-03-23T13:56:27;6.38;;;2.75;;
50231;SDS011;36118;56.468;84.952;2024-03-23T14:01:31;8.82;;;3.15;;
50231;SDS011;36118;56.468;84.952;2024-03-23T14:06:34;12.40;;;4.57;;
50231;SDS011;36118;56.468;84.952;2024-03-23T14:11:36;9.85;;;3.20;;
50231;SDS011;36118;56.468;84.952;2024-03-23T14:16:39;6.25;;;2.85;;
50231;SDS011;36118;56.468;84.952;2024-03-23T14:21:41;7.18;;;3.03;;
50231;SDS011;36118;56.468;84.952;2024-03-23T14:26:44;8.48;;;3.60;;
50231;SDS011;36118;56.468;84.952;2024-03-23T14:31:46;8.15;;;3.83;;
50231;SDS011;36118;56.468;84.952;2024-03-23T14:36:48;9.50;;;3.60;;
50231;SDS011;36118;56.468;84.952;2024-03-23T14:41:50;7.20;;;3.70;;
50231;SDS011;36118;56.468;84.952;2024-03-23T14:46:52;8.43;;;3.60;;
50231;SDS011;36118;56.468;84.952;2024-03-23T14:51:55;5.60;;;3.25;;
50231;SDS011;36118;56.468;84.952;2024-03-23T14:56:58;10.23;;;4.65;;
50231;SDS011;36118;56.468;84.952;2024-03-23T15:02:01;9.15;;;4.25;;
50231;SDS011;36118;56.468;84.952;2024-03-23T15:07:03;12.30;;;4.68;;
50231;SDS011;36118;56.468;84.952;2024-03-23T15:12:05;11.05;;;4.13;;
50231;SDS011;36118;56.468;84.952;2024-03-23T15:17:08;8.68;;;4.20;;
50231;SDS011;36118;56.468;84.952;2024-03-23T15:22:10;9.15;;;3.80;;
50231;SDS011;36118;56.468;84.952;2024-03-23T15:27:14;8.68;;;4.03;;
50231;SDS011;36118;56.468;84.952;2024-03-23T15:32:16;8.27;;;3.72;;
50231;SDS011;36118;56.468;84.952;2024-03-23T15:37:19;8.93;;;4.30;;
50231;SDS011;36118;56.468;84.952;2024-03-23T15:42:21;9.88;;;4.00;;
50231;SDS011;36118;56.468;84.952;2024-03-23T15:47:23;9.13;;;4.18;;
50231;SDS011;36118;56.468;84.952;2024-03-23T15:52:25;10.95;;;4.47;;
50231;SDS011;36118;56.468;84.952;2024-03-23T15:57:27;7.93;;;3.95;;
50231;SDS011;36118;56.468;84.952;2024-03-23T16:02:29;7.85;;;3.88;;
50231;SDS011;36118;56.468;84.952;2024-03-23T16:07:32;7.80;;;3.65;;
50231;SDS011;36118;56.468;84.952;2024-03-23T16:12:34;9.10;;;3.80;;
50231;SDS011;36118;56.468;84.952;2024-03-23T16:17:36;13.55;;;5.05;;
50231;SDS011;36118;56.468;84.952;2024-03-23T16:22:38;11.82;;;5.22;;
50231;SDS011;36118;56.468;84.952;2024-03-23T16:27:40;10.73;;;4.75;;
50231;SDS011;36118;56.468;84.952;2024-03-23T16:32:44;10.00;;;4.97;;
50231;SDS011;36118;56.468;84.952;2024-03-23T16:37:46;11.82;;;4.63;;
50231;SDS011;36118;56.468;84.952;2024-03-23T16:42:49;10.57;;;5.03;;
50231;SDS011;36118;56.468;84.952;2024-03-23T16:47:51;11.60;;;4.90;;
50231;SDS011;36118;56.468;84.952;2024-03-23T16:52:53;13.73;;;5.43;;
50231;SDS011;36118;56.468;84.952;2024-03-23T16:57:55;11.63;;;5.00;;
50231;SDS011;36118;56.468;84.952;2024-03-23T17:02:57;14.20;;;6.47;;
50231;SDS011;36118;56.468;84.952;2024-03-23T17:07:59;15.73;;;5.90;;
50231;SDS011;36118;56.468;84.952;2024-03-23T17:13:02;17.30;;;7.13;;
50231;SDS011;36118;56.468;84.952;2024-03-23T17:18:04;12.75;;;5.70;;
50231;SDS011;36118;56.468;84.952;2024-03-23T17:23:06;17.60;;;7.25;;
50231;SDS011;36118;56.468;84.952;2024-03-23T17:28:08;8.93;;;4.10;;
50231;SDS011;36118;56.468;84.952;2024-03-23T17:33:13;9.80;;;5.22;;
50231;SDS011;36118;56.468;84.952;2024-03-23T17:38:16;13.05;;;6.03;;
50231;SDS011;36118;56.468;84.952;2024-03-23T17:43:20;9.57;;;4.85;;
50231;SDS011;36118;56.468;84.952;2024-03-23T17:48:22;9.75;;;4.80;;
50231;SDS011;36118;56.468;84.952;2024-03-23T17:53:24;9.35;;;4.78;;
50231;SDS011;36118;56.468;84.952;2024-03-23T17:58:26;10.93;;;5.57;;
50231;SDS011;36118;56.468;84.952;2024-03-23T18:03:28;20.27;;;5.50;;
50231;SDS011;36118;56.468;84.952;2024-03-23T18:08:30;9.82;;;5.40;;
50231;SDS011;36118;56.468;84.952;2024-03-23T18:13:32;9.18;;;5.25;;
50231;SDS011;36118;56.468;84.952;2024-03-23T18:18:33;9.65;;;5.20;;
50231;SDS011;36118;56.468;84.952;2024-03-23T18:23:35;10.35;;;4.80;;
50231;SDS011;36118;56.468;84.952;2024-03-23T18:28:37;9.48;;;4.43;;
50231;SDS011;36118;56.468;84.952;2024-03-23T18:33:39;9.32;;;4.93;;
50231;SDS011;36118;56.468;84.952;2024-03-23T18:38:41;9.82;;;4.15;;
50231;SDS011;36118;56.468;84.952;2024-03-23T18:43:46;13.18;;;5.10;;
50231;SDS011;36118;56.468;84.952;2024-03-23T18:48:49;10.20;;;4.32;;
50231;SDS011;36118;56.468;84.952;2024-03-23T18:53:52;16.35;;;6.25;;
50231;SDS011;36118;56.468;84.952;2024-03-23T18:58:54;12.55;;;5.20;;
50231;SDS011;36118;56.468;84.952;2024-03-23T19:03:56;11.77;;;4.65;;
50231;SDS011;36118;56.468;84.952;2024-03-23T19:08:58;12.02;;;3.67;;
50231;SDS011;36118;56.468;84.952;2024-03-23T19:14:00;7.90;;;4.70;;
50231;SDS011;36118;56.468;84.952;2024-03-23T19:19:02;10.35;;;4.80;;
50231;SDS011;36118;56.468;84.952;2024-03-23T19:24:05;8.23;;;4.93;;
50231;SDS011;36118;56.468;84.952;2024-03-23T19:29:07;10.57;;;4.20;;
50231;SDS011;36118;56.468;84.952;2024-03-23T19:34:08;6.20;;;3.55;;
50231;SDS011;36118;56.468;84.952;2024-03-23T19:39:10;10.32;;;4.70;;
50231;SDS011;36118;56.468;84.952;2024-03-23T19:44:13;9.25;;;4.80;;
50231;SDS011;36118;56.468;84.952;2024-03-23T19:49:15;9.68;;;4.30;;
50231;SDS011;36118;56.468;84.952;2024-03-23T19:54:17;7.65;;;3.83;;
50231;SDS011;36118;56.468;84.952;2024-03-23T19:59:19;9.63;;;4.35;;
50231;SDS011;36118;56.468;84.952;2024-03-23T20:04:22;10.88;;;4.15;;
50231;SDS011;36118;56.468;84.952;2024-03-23T20:09:24;8.25;;;4.25;;
50231;SDS011;36118;56.468;84.952;2024-03-23T20:14:30;7.88;;;4.50;;
50231;SDS011;36118;56.468;84.952;2024-03-23T20:19:32;9.25;;;4.00;;
50231;SDS011;36118;56.468;84.952;2024-03-23T20:24:34;11.15;;;4.00;;
50231;SDS011;36118;56.468;84.952;2024-03-23T20:29:37;10.20;;;4.13;;
50231;SDS011;36118;56.468;84.952;2024-03-23T20:34:39;7.32;;;3.80;;
50231;SDS011;36118;56.468;84.952;2024-03-23T20:39:41;6.95;;;3.90;;
50231;SDS011;36118;56.468;84.952;2024-03-23T20:44:44;12.35;;;4.75;;
50231;SDS011;36118;56.468;84.952;2024-03-23T20:49:46;10.15;;;4.72;;
50231;SDS011;36118;56.468;84.952;2024-03-23T20:54:47;8.82;;;4.35;;
50231;SDS011;36118;56.468;84.952;2024-03-23T20:59:50;7.85;;;4.22;;
50231;SDS011;36118;56.468;84.952;2024-03-23T21:04:52;7.85;;;3.63;;
50231;SDS011;36118;56.468;84.952;2024-03-23T21:09:54;11.10;;;4.65;;
50231;SDS011;36118;56.468;84.952;2024-03-23T21:14:56;8.50;;;4.18;;
50231;SDS011;36118;56.468;84.952;2024-03-23T21:19:57;8.82;;;4.30;;
50231;SDS011;36118;56.468;84.952;2024-03-23T21:24:59;11.65;;;4.38;;
50231;SDS011;36118;56.468;84.952;2024-03-23T21:30:02;7.68;;;3.20;;
50231;SDS011;36118;56.468;84.952;2024-03-23T21:35:04;8.55;;;4.38;;
50231;SDS011;36118;56.468;84.952;2024-03-23T21:40:07;9.30;;;4.15;;
50231;SDS011;36118;56.468;84.952;2024-03-23T21:45:10;10.13;;;4.10;;
50231;SDS011;36118;56.468;84.952;2024-03-23T21:50:11;8.30;;;3.88;;
50231;SDS011;36118;56.468;84.952;2024-03-23T21:55:14;8.95;;;3.63;;
50231;SDS011;36118;56.468;84.952;2024-03-23T22:00:17;6.43;;;3.70;;
50231;SDS011;36118;56.468;84.952;2024-03-23T22:05:19;10.20;;;3.95;;
50231;SDS011;36118;56.468;84.952;2024-03-23T22:10:20;10.27;;;3.70;;
50231;SDS011;36118;56.468;84.952;2024-03-23T22:15:22;10.43;;;3.30;;
50231;SDS011;36118;56.468;84.952;2024-03-23T22:20:24;8.20;;;3.63;;
50231;SDS011;36118;56.468;84.952;2024-03-23T22:25:26;9.05;;;3.78;;
50231;SDS011;36118;56.468;84.952;2024-03-23T22:30:28;10.10;;;3.45;;
50231;SDS011;36118;56.468;84.952;2024-03-23T22:35:29;9.88;;;4.30;;
50231;SDS011;36118;56.468;84.952;2024-03-23T22:40:32;8.20;;;3.80;;
50231;SDS011;36118;56.468;84.952;2024-03-23T22:45:34;8.65;;;3.72;;
50231;SDS011;36118;56.468;84.952;2024-03-23T22:50:35;10.02;;;3.72;;
50231;SDS011;36118;56.468;84.952;2024-03-23T22:55:37;8.38;;;3.60;;
50231;SDS011;36118;56.468;84.952;2024-03-23T23:00:39;9.38;;;3.70;;
50231;SDS011;36118;56.468;84.952;2024-03-23T23:05:42;6.97;;;3.65;;
50231;SDS011;36118;56.468;84.952;2024-03-23T23:10:47;8.88;;;3.60;;
50231;SDS011;36118;56.468;84.952;2024-03-23T23:15:49;7.18;;;3.92;;
50231;SDS011;36118;56.468;84.952;2024-03-23T23:20:51;6.95;;;3.38;;
50231;SDS011;36118;56.468;84.952;2024-03-23T23:25:53;10.35;;;4.88;;
50231;SDS011;36118;56.468;84.952;2024-03-23T23:30:58;8.77;;;3.90;;
50231;SDS011;36118;56.468;84.952;2024-03-23T23:36:02;13.10;;;4.07;;
50231;SDS011;36118;56.468;84.952;2024-03-23T23:41:04;10.98;;;4.15;;
50231;SDS011;36118;56.468;84.952;2024-03-23T23:46:06;10.27;;;3.85;;
50231;SDS011;36118;56.468;84.952;2024-03-23T23:51:08;9.40;;;3.67;;
50231;SDS011;36118;56.468;84.952;2024-03-23T23:56:10;9.70;;;5.22;;
